Alanreed, TX (79002)

8:00 AM CST on February 14, 2016 (GMT -0600)
WT_Meso | | Change Station
CLOSE
Current Station
Personal Weather Station
Location: Pampa, TX
Elevation: 3215 ft
Nearby Weather Stations

Elev 3215 ft 35.54 °N, 100.93 °W | Updated 25 minutes ago

Mostly Cloudy
Mostly Cloudy
30 °F
Feels Like 19 °F
N
15
Wind Variable Wind from NW
Gusts 19.0 mph

Today
High -- | Low -- °F
--% Chance of Precip.
Yesterday
High -- | Low -- °F
Precip. -- in
Pressure 30.01 in
Visibility 10.0 miles
Clouds Clear
Windchill 19 °F
Dew Point 27 °F
Humidity 89%
Rainfall in
Snow Depth Not available.
7:31 AM 6:23 PM
Waxing Crescent, 42% visible
METAR KPPA 141335Z AUTO 35011KT 10SM CLR 00/M02 A3001 RMK AO2 T00001020
Pressure 30.01 in
Visibility 10.0 miles
Clouds Clear
Windchill 19 °F
Dew Point 27 °F
Humidity 89%
Rainfall in
Snow Depth Not available.
7:31 AM 6:23 PM
Waxing Crescent, 42% visible
METAR KPPA 141335Z AUTO 35011KT 10SM CLR 00/M02 A3001 RMK AO2 T00001020

10-Day Weather Forecast

Almanac

Astronomy

Feb. 14, 2016 Rise Set
Actual Time
Civil Twilight
Nautical Twilight
Astronomical Twilight
Moon
Length of Visible Light
Length of Day
Tomorrow will be .
, % of the Moon is Illuminated

Today's Extremes

State Highs State Lows

Community

WunderPhotos

Upload Photos

1,892,793 photos uploaded!

WunderBlog® & News

Nearby

Air Quality

  Air Quality AQ Index Pollutant
Not available.

Snow Depth

Station Depth Elevation

Earthquake Activity

City Distance Mag. Time & Date
Minimum magnitude displayed is 2.5.

Coastal Water Temperatures

Place Temperature

Stations

Nearby Weather Stations

Station Location Temp. Windchill Dew Point Humidity Wind Precip. Elev Updated Type
                   

Watches & Warnings

There are currently no watches in effect.